Ana Sayfa
METAR-TAF:

METAR-TAF

Havaalanları :

Jackson, Tennessee, Amerika Birleşik Devletleri

Enlem: 35-35-35N, Boylam: 088-55-00W, yükseklik: 132 m

Güncel hava durumu gözlemi

Rapor saat 17:53 UTC de 19 dakika önce yapıldı.
Rüzgar doğudan 5 kt
Sıcaklık 27°C
Nem 42%
Basınç 1017 hPa
Görüş mesafesi: 16.1 km
Açık gökyüzü

METAR: KMKL 121753Z 08005KT 10SM CLR 27/13 A3003 RMK AO2 SLP165 T02720128 10278 20150 58009

Saat: 13:12 (18:12 UTC)

Tahmin

Rapor saat 17:32 UTC de 40 dakika önce yapıldı.
Ayın 12'si saat 18 UTC'den ayın 13'si saat 18 UTC'ye kadar geçerli Tahmin
Rüzgar kuzey/kuzeydoğudan 7 kt
Görüş mesafesi: 10 km
25000 ft yükseklikte parçalı bulutlu
Ayın 13'si saat 0000 UTC'den
Rüzgar değişken yönden 2 kt
Görüş mesafesi: 10 km
Açık gökyüzü
Geçici
ayın 13'si saat 09 UTC'den ayın 13'si saat 12 UTC'ye kadar
Görüş mesafesi: 6.4 km
Pus,

TAF: KMKL 121732Z 1218/1318 03007KT P6SM SCT250 FM130000 VRB02KT P6SM SKC TEMPO 1309/1312 4SM BR

4.000'den fazla havaalanı için hava durumu gözlemleri ve tahminleri (METAR ve TAF raporları).

Kullanılabilir istasyonlar harita üzerinde sarı ve kırmızı noktalarla gösterilir.

İstasyonun adını görmek için fareyi noktanın üzerinde gezdirin.

Sonrasında hava gözlem ve tahminlerini görmek için tıklayın.

Haritayı değiştirmek için: yaklaştırmak için siyah artı işaretli yeşil düğmeye ve uzaklaştırmak için de eksi işaretli düğmeye hızla tıklayın; bitişik haritalar için yeşil okları kullanın.


METAR-TAF: